createdAt,value
2023-02-11T00:00:20.254Z,69.87
2023-02-11T00:00:52.049Z,70.80
2023-02-11T00:01:32.809Z,71.77
2023-02-11T00:02:05.375Z,71.57
2023-02-11T00:02:37.210Z,71.17
2023-02-11T00:03:09.561Z,72.17
2023-02-11T00:03:41.374Z,68.50
2023-02-11T00:04:13.519Z,67.13
2023-02-11T00:04:45.190Z,68.67
2023-02-11T00:05:16.919Z,69.00
2023-02-11T00:06:03.276Z,68.90
2023-02-11T00:06:36.427Z,69.77
2023-02-11T00:07:08.100Z,67.57
2023-02-11T00:07:39.793Z,67.63
2023-02-11T00:08:16.966Z,69.50
2023-02-11T00:08:48.735Z,69.33
2023-02-11T00:09:20.423Z,67.27
2023-02-11T00:09:52.128Z,68.67
2023-02-11T00:10:23.770Z,67.37
2023-02-11T00:10:57.353Z,68.00
2023-02-11T00:11:30.570Z,68.43
2023-02-11T00:12:02.338Z,68.90
2023-02-11T00:12:35.501Z,67.83
2023-02-11T00:13:07.160Z,67.97
2023-02-11T00:13:38.823Z,67.90
2023-02-11T00:14:11.775Z,67.07
2023-02-11T00:14:43.515Z,67.90
2023-02-11T00:15:15.266Z,69.83
2023-02-11T00:15:47.081Z,70.07
2023-02-11T00:16:21.251Z,70.93
2023-02-11T00:16:53.008Z,68.97
2023-02-11T00:17:24.876Z,68.53
2023-02-11T00:17:56.541Z,68.20
2023-02-11T00:18:28.831Z,66.77
2023-02-11T00:19:02.336Z,68.43
2023-02-11T00:19:34.031Z,67.23
2023-02-11T00:20:08.225Z,67.80
2023-02-11T00:20:40.301Z,69.17
2023-02-11T00:21:14.689Z,70.50
2023-02-11T00:21:46.376Z,70.90
2023-02-11T00:22:18.820Z,69.47
2023-02-11T00:22:50.471Z,67.97
2023-02-11T00:23:22.135Z,67.57
2023-02-11T00:23:57.290Z,69.00
2023-02-11T00:24:30.172Z,69.70
2023-02-11T00:25:01.911Z,68.60
2023-02-11T00:25:33.658Z,69.70
2023-02-11T00:26:15.622Z,69.47
2023-02-11T00:26:47.294Z,70.77
2023-02-11T00:27:19.138Z,71.67
2023-02-11T00:27:50.802Z,73.50
2023-02-11T00:28:22.540Z,69.60
2023-02-11T00:28:54.322Z,70.43
2023-02-11T00:29:25.979Z,69.90
2023-02-11T00:29:57.752Z,67.83
2023-02-11T00:30:29.462Z,68.70
2023-02-11T00:31:02.570Z,69.67
2023-02-11T00:31:34.958Z,71.17
2023-02-11T00:32:08.879Z,70.13
2023-02-11T00:32:42.635Z,67.70
2023-02-11T00:33:14.300Z,70.80
2023-02-11T00:33:46.975Z,71.93
2023-02-11T00:34:18.701Z,71.17
2023-02-11T00:34:52.569Z,73.00
2023-02-11T00:35:24.235Z,72.53
2023-02-11T00:35:55.898Z,71.30
2023-02-11T00:36:29.119Z,73.30
2023-02-11T00:37:00.933Z,70.67
2023-02-11T00:37:36.409Z,70.47
2023-02-11T00:38:08.064Z,69.87
2023-02-11T00:38:39.765Z,71.23
2023-02-11T00:39:11.451Z,69.57
2023-02-11T00:39:43.136Z,70.40
2023-02-11T00:40:16.115Z,68.80
2023-02-11T00:40:48.500Z,69.70
2023-02-11T00:41:20.914Z,69.03
2023-02-11T00:41:52.575Z,67.70
2023-02-11T00:42:24.312Z,68.60
2023-02-11T00:42:55.949Z,67.90
2023-02-11T00:43:27.665Z,67.37
2023-02-11T00:44:00.234Z,68.80
2023-02-11T00:44:31.921Z,66.97
2023-02-11T00:45:04.650Z,66.83
2023-02-11T00:45:36.363Z,68.37
2023-02-11T00:46:09.091Z,67.80
2023-02-11T00:46:40.858Z,68.27
2023-02-11T00:47:12.748Z,68.27
2023-02-11T00:47:44.430Z,69.73
2023-02-11T00:48:16.193Z,70.37
2023-02-11T00:48:48.118Z,71.33
2023-02-11T00:49:19.765Z,71.27
2023-02-11T00:49:51.453Z,70.10
2023-02-11T00:50:23.706Z,68.87
2023-02-11T00:50:55.415Z,67.67
2023-02-11T00:51:28.916Z,69.23
2023-02-11T00:52:00.835Z,67.90
2023-02-11T00:52:32.893Z,69.13
2023-02-11T00:53:04.717Z,68.47
2023-02-11T00:53:36.896Z,67.67
2023-02-11T00:54:08.734Z,67.17
2023-02-11T00:54:40.647Z,65.60
2023-02-11T00:55:12.382Z,66.67
2023-02-11T00:55:44.045Z,67.50
2023-02-11T00:56:15.785Z,69.10
2023-02-11T00:56:47.479Z,66.93
2023-02-11T00:57:19.246Z,65.20
2023-02-11T00:57:51.014Z,66.10
2023-02-11T00:58:22.955Z,65.57
2023-02-11T00:58:54.605Z,66.13
2023-02-11T00:59:26.261Z,67.40
2023-02-11T00:59:57.897Z,65.53
2023-02-11T01:00:29.754Z,67.83
2023-02-11T01:01:01.430Z,68.27
2023-02-11T01:01:33.239Z,68.73
2023-02-11T01:02:04.920Z,68.17
2023-02-11T01:02:36.580Z,69.13
2023-02-11T01:03:08.240Z,69.40
2023-02-11T01:03:40.689Z,67.17
2023-02-11T01:04:12.423Z,66.83
2023-02-11T01:04:44.060Z,66.83
2023-02-11T01:05:15.928Z,66.83
2023-02-11T01:05:47.772Z,66.13
2023-02-11T01:06:19.578Z,65.27
2023-02-11T01:06:51.278Z,69.57
2023-02-11T01:07:23.245Z,69.17
2023-02-11T01:07:54.936Z,68.63
2023-02-11T01:08:27.088Z,67.97
2023-02-11T01:08:58.780Z,68.57
2023-02-11T01:09:30.747Z,68.07
2023-02-11T01:10:02.461Z,67.50
2023-02-11T01:10:34.203Z,66.37
2023-02-11T01:11:11.987Z,66.20
2023-02-11T01:11:44.057Z,66.57
2023-02-11T01:12:15.721Z,67.47
2023-02-11T01:12:47.884Z,68.00
2023-02-11T01:13:19.529Z,65.17
2023-02-11T01:13:51.420Z,66.23
2023-02-11T01:14:23.419Z,66.23
2023-02-11T01:14:55.126Z,65.23
2023-02-11T01:15:26.886Z,66.57
2023-02-11T01:15:59.164Z,66.10
2023-02-11T01:16:30.910Z,67.37
2023-02-11T01:17:05.448Z,65.87
2023-02-11T01:17:38.241Z,66.93
2023-02-11T01:18:09.912Z,65.90
2023-02-11T01:18:44.261Z,65.97
2023-02-11T01:19:15.959Z,66.77
2023-02-11T01:19:47.703Z,64.13
2023-02-11T01:20:26.566Z,65.00
2023-02-11T01:20:58.227Z,65.97
2023-02-11T01:21:29.915Z,65.33
2023-02-11T01:22:01.611Z,64.27
2023-02-11T01:22:34.396Z,64.60
2023-02-11T01:23:06.044Z,65.03
2023-02-11T01:23:37.749Z,66.00
2023-02-11T01:24:09.412Z,66.03
2023-02-11T01:24:41.078Z,64.70
2023-02-11T01:25:12.766Z,66.57
2023-02-11T01:25:44.680Z,65.30
2023-02-11T01:26:16.577Z,65.97
2023-02-11T01:26:48.210Z,65.37
2023-02-11T01:27:19.984Z,62.53
2023-02-11T01:27:51.622Z,63.87
2023-02-11T01:28:26.270Z,65.10
2023-02-11T01:29:00.126Z,65.83
2023-02-11T01:29:31.771Z,64.77
2023-02-11T01:30:07.062Z,65.07
2023-02-11T01:30:39.539Z,65.60
2023-02-11T01:31:11.375Z,66.87
2023-02-11T01:31:43.052Z,64.50
2023-02-11T01:32:14.839Z,63.50
2023-02-11T01:32:46.541Z,63.40
2023-02-11T01:33:18.257Z,63.83
2023-02-11T01:33:49.952Z,63.23
2023-02-11T01:34:21.597Z,63.47
2023-02-11T01:34:53.270Z,63.40
2023-02-11T01:35:24.924Z,62.87
2023-02-11T01:36:00.805Z,63.30
2023-02-11T01:36:32.668Z,64.87
2023-02-11T01:37:04.351Z,64.40
2023-02-11T01:37:36.890Z,62.70
2023-02-11T01:38:14.837Z,63.23
2023-02-11T01:38:46.484Z,65.30
2023-02-11T01:39:18.268Z,63.70
2023-02-11T01:39:50.054Z,61.93
2023-02-11T01:40:21.770Z,62.20
2023-02-11T01:41:08.753Z,63.40
2023-02-11T01:41:40.496Z,61.27
2023-02-11T01:42:17.076Z,63.33
2023-02-11T01:42:50.957Z,64.37
2023-02-11T01:43:24.943Z,64.13
2023-02-11T01:43:56.618Z,63.70
2023-02-11T01:44:34.762Z,61.43
2023-02-11T01:45:43.801Z,63.20
2023-02-11T01:46:36.316Z,62.70
2023-02-11T01:47:08.079Z,64.37
2023-02-11T01:47:39.767Z,65.03
2023-02-11T01:48:15.477Z,63.80
2023-02-11T01:48:53.316Z,64.73
2023-02-11T01:49:30.277Z,65.83
2023-02-11T01:50:02.904Z,63.97
2023-02-11T01:50:35.026Z,63.30
2023-02-11T01:51:13.354Z,64.97
2023-02-11T01:51:51.765Z,65.73
2023-02-11T01:52:30.294Z,66.03
2023-02-11T01:53:22.348Z,67.33
2023-02-11T01:54:14.163Z,70.27
2023-02-11T01:55:12.077Z,68.83
2023-02-11T01:56:02.195Z,68.27
2023-02-11T01:56:58.000Z,63.87
2023-02-11T01:57:33.855Z,65.43
2023-02-11T01:58:06.319Z,64.20
2023-02-11T01:58:43.503Z,63.77
2023-02-11T01:59:26.911Z,64.53
2023-02-11T02:00:07.916Z,63.00
2023-02-11T02:00:41.695Z,63.67
2023-02-11T02:01:19.236Z,64.73
2023-02-11T02:01:57.496Z,64.33
2023-02-11T02:02:43.940Z,62.37
2023-02-11T02:03:22.800Z,60.30
2023-02-11T02:03:59.680Z,60.87
2023-02-11T02:04:38.900Z,64.17
2023-02-11T02:05:53.059Z,63.47
2023-02-11T02:06:35.429Z,64.27
2023-02-11T02:07:14.656Z,67.50
2023-02-11T02:08:13.018Z,67.37
2023-02-11T02:08:52.194Z,68.67
2023-02-11T02:09:29.028Z,66.70
2023-02-11T02:10:07.681Z,67.20
2023-02-11T02:10:43.952Z,68.00
2023-02-11T02:11:15.914Z,67.43
2023-02-11T02:11:47.824Z,68.40
2023-02-11T02:12:19.564Z,68.17
2023-02-11T02:12:51.475Z,68.17
2023-02-11T02:13:24.281Z,67.23
2023-02-11T02:13:55.954Z,66.07
2023-02-11T02:14:28.956Z,67.90
2023-02-11T02:15:33.417Z,67.33
2023-02-11T02:16:09.832Z,68.33
2023-02-11T02:16:41.987Z,70.50
2023-02-11T02:17:33.779Z,71.50
2023-02-11T02:18:10.991Z,73.37
2023-02-11T02:19:03.892Z,72.30
2023-02-11T02:19:50.413Z,73.70
2023-02-11T02:20:40.201Z,75.17
2023-02-11T02:21:33.133Z,75.80
2023-02-11T02:22:42.049Z,80.63
2023-02-11T02:23:41.648Z,79.70
2023-02-11T02:24:44.463Z,80.67
2023-02-11T02:25:42.747Z,79.60
2023-02-11T02:26:45.290Z,81.30
2023-02-11T02:27:44.707Z,80.83
2023-02-11T02:28:42.351Z,79.93
2023-02-11T02:29:22.632Z,80.47
2023-02-11T02:29:54.248Z,81.37
2023-02-11T02:30:48.303Z,82.00
2023-02-11T02:31:50.462Z,82.63
2023-02-11T02:32:31.229Z,84.53
2023-02-11T02:33:23.127Z,83.77
2023-02-11T02:34:02.479Z,82.67
2023-02-11T02:34:49.502Z,82.67
2023-02-11T02:35:59.734Z,82.80
2023-02-11T02:36:47.585Z,86.37
2023-02-11T02:37:28.502Z,86.90
2023-02-11T02:38:08.676Z,86.37
2023-02-11T02:38:40.329Z,86.00
2023-02-11T02:39:20.210Z,86.70
2023-02-11T02:39:51.924Z,90.50
2023-02-11T02:40:38.355Z,89.90
2023-02-11T02:41:15.670Z,88.67
2023-02-11T02:41:50.966Z,87.63
2023-02-11T02:42:23.812Z,88.63
2023-02-11T02:42:57.058Z,88.07
2023-02-11T02:43:30.355Z,88.80
2023-02-11T02:44:02.424Z,91.00
2023-02-11T02:44:34.366Z,89.83
2023-02-11T02:45:09.029Z,89.70
2023-02-11T02:45:40.763Z,89.77
2023-02-11T02:46:16.441Z,87.67
2023-02-11T02:46:48.201Z,89.37
2023-02-11T02:47:19.953Z,91.20
2023-02-11T02:47:51.609Z,87.37
2023-02-11T02:48:35.777Z,88.80
2023-02-11T02:49:13.572Z,89.20
2023-02-11T02:49:45.320Z,88.77
2023-02-11T02:50:25.315Z,88.90
2023-02-11T02:51:06.680Z,87.97
2023-02-11T02:52:00.033Z,90.23
2023-02-11T02:52:34.564Z,87.30
2023-02-11T02:53:08.853Z,89.90
2023-02-11T02:53:52.260Z,91.40
2023-02-11T02:54:37.281Z,90.00
2023-02-11T02:55:31.140Z,87.97
2023-02-11T02:56:16.988Z,89.93
2023-02-11T02:56:57.765Z,89.70
2023-02-11T02:58:01.543Z,91.47
2023-02-11T02:58:56.378Z,91.17
2023-02-11T03:00:09.498Z,89.33
2023-02-11T03:00:54.989Z,90.47
2023-02-11T03:01:38.678Z,88.67
2023-02-11T03:02:19.264Z,92.87
2023-02-11T03:03:06.938Z,92.90
2023-02-11T03:04:06.325Z,89.07
2023-02-11T03:04:51.936Z,90.40
2023-02-11T03:05:34.185Z,89.37
2023-02-11T03:06:26.158Z,90.10
2023-02-11T03:07:20.957Z,91.47
2023-02-11T03:08:09.691Z,88.80
2023-02-11T03:08:53.032Z,89.83
2023-02-11T03:09:46.945Z,89.50
2023-02-11T03:10:40.703Z,90.60
2023-02-11T03:11:17.284Z,88.77
2023-02-11T03:11:49.530Z,87.23
2023-02-11T03:12:24.508Z,88.43
2023-02-11T03:12:58.072Z,88.73
2023-02-11T03:13:33.999Z,86.10
2023-02-11T03:14:10.376Z,88.23
2023-02-11T03:14:42.187Z,89.30
2023-02-11T03:15:16.686Z,88.70
2023-02-11T03:15:52.458Z,89.97
2023-02-11T03:16:28.238Z,89.77
2023-02-11T03:17:04.411Z,89.77
2023-02-11T03:17:41.421Z,87.57
2023-02-11T03:18:18.694Z,86.60
2023-02-11T03:19:01.530Z,88.13
2023-02-11T03:19:41.193Z,87.27
2023-02-11T03:20:17.589Z,88.03
2023-02-11T03:20:53.416Z,85.87
2023-02-11T03:21:26.633Z,87.53
2023-02-11T03:21:58.527Z,87.10
2023-02-11T03:22:42.745Z,85.97
2023-02-11T03:23:23.802Z,86.37
2023-02-11T03:23:59.584Z,85.93
2023-02-11T03:24:35.145Z,85.33
2023-02-11T03:25:07.747Z,82.67
2023-02-11T03:25:49.166Z,84.70
2023-02-11T03:26:33.758Z,86.90
2023-02-11T03:27:29.211Z,89.07
2023-02-11T03:28:08.787Z,96.17
2023-02-11T03:28:50.266Z,95.97
2023-02-11T03:29:35.400Z,95.17
2023-02-11T03:30:18.710Z,95.40
2023-02-11T03:31:02.332Z,94.03
2023-02-11T03:31:45.996Z,92.30
2023-02-11T03:32:28.228Z,92.63
2023-02-11T03:33:14.152Z,93.80
2023-02-11T03:34:05.947Z,87.77
2023-02-11T03:34:45.979Z,88.57
2023-02-11T03:35:24.555Z,89.67
2023-02-11T03:36:15.214Z,88.67
2023-02-11T03:36:54.624Z,91.33
2023-02-11T03:37:33.472Z,90.03
2023-02-11T03:38:33.362Z,93.30
2023-02-11T03:39:07.360Z,95.43
2023-02-11T03:39:55.005Z,101.73
2023-02-11T03:40:32.595Z,109.13
2023-02-11T03:41:08.412Z,111.03
2023-02-11T03:41:43.035Z,114.57
2023-02-11T03:42:16.353Z,114.20
2023-02-11T03:43:01.187Z,110.13
2023-02-11T03:43:48.768Z,106.30
2023-02-11T03:44:25.322Z,108.27
2023-02-11T03:45:05.335Z,102.23
2023-02-11T03:45:39.535Z,96.23
2023-02-11T03:46:15.261Z,95.47
2023-02-11T03:46:51.556Z,97.53
2023-02-11T03:47:27.590Z,99.43
2023-02-11T03:48:11.796Z,98.73
2023-02-11T03:48:50.107Z,102.80
2023-02-11T03:49:27.741Z,102.13
2023-02-11T03:50:03.077Z,101.53
2023-02-11T03:50:37.425Z,99.87
2023-02-11T03:51:12.725Z,99.67
2023-02-11T03:51:45.152Z,101.10
2023-02-11T03:52:20.388Z,100.53
2023-02-11T03:52:54.154Z,100.80
2023-02-11T03:53:25.830Z,99.97
2023-02-11T03:54:02.132Z,100.60
2023-02-11T03:54:35.805Z,98.70
2023-02-11T03:55:13.426Z,100.97
2023-02-11T03:55:49.189Z,100.00
2023-02-11T03:56:26.899Z,102.37
2023-02-11T03:57:02.565Z,102.90
2023-02-11T03:57:34.771Z,99.90
2023-02-11T03:58:07.281Z,97.90
2023-02-11T03:58:38.975Z,96.10
2023-02-11T03:59:10.665Z,93.60
2023-02-11T03:59:57.785Z,95.20
2023-02-11T04:00:36.636Z,91.43
2023-02-11T04:01:09.901Z,91.30
2023-02-11T04:01:41.636Z,92.07
2023-02-11T04:02:13.329Z,91.73
2023-02-11T04:02:45.083Z,90.43
2023-02-11T04:03:16.922Z,89.50
2023-02-11T04:03:48.610Z,90.93
2023-02-11T04:04:20.593Z,91.77
2023-02-11T04:04:52.256Z,92.33
2023-02-11T04:05:23.927Z,92.43
2023-02-11T04:05:55.550Z,89.63
2023-02-11T04:06:27.249Z,90.13
2023-02-11T04:06:58.898Z,91.07
2023-02-11T04:07:30.895Z,91.63
2023-02-11T04:08:03.459Z,90.37
2023-02-11T04:08:35.187Z,90.17
2023-02-11T04:09:07.230Z,91.67
2023-02-11T04:09:39.044Z,92.73
2023-02-11T04:10:12.212Z,90.57
2023-02-11T04:10:43.878Z,92.07
2023-02-11T04:11:15.578Z,91.53
2023-02-11T04:11:47.246Z,89.90
2023-02-11T04:12:19.377Z,89.87
2023-02-11T04:12:51.095Z,90.90
2023-02-11T04:13:23.236Z,91.93
2023-02-11T04:13:54.933Z,91.10
2023-02-11T04:14:26.642Z,89.73
2023-02-11T04:14:58.565Z,92.27
2023-02-11T04:15:30.300Z,90.83
2023-02-11T04:16:02.026Z,92.97
2023-02-11T04:16:33.790Z,93.70
2023-02-11T04:17:05.910Z,92.47
2023-02-11T04:17:37.943Z,92.37
2023-02-11T04:18:09.681Z,91.20
2023-02-11T04:18:41.326Z,91.03
2023-02-11T04:19:13.009Z,93.83
2023-02-11T04:19:44.758Z,95.60
2023-02-11T04:20:16.583Z,96.33
2023-02-11T04:20:50.379Z,94.23
2023-02-11T04:21:22.032Z,94.40
2023-02-11T04:21:53.722Z,95.60
2023-02-11T04:22:25.519Z,96.57
2023-02-11T04:22:57.269Z,95.17
2023-02-11T04:23:29.174Z,93.60
2023-02-11T04:24:00.809Z,93.97
2023-02-11T04:24:32.530Z,91.73
2023-02-11T04:25:05.942Z,90.23
2023-02-11T04:25:37.641Z,92.17
2023-02-11T04:26:09.321Z,91.17
2023-02-11T04:26:41.111Z,91.17
2023-02-11T04:27:12.902Z,89.20
2023-02-11T04:27:44.597Z,89.77
2023-02-11T04:28:16.300Z,91.73
2023-02-11T04:28:47.996Z,91.87
2023-02-11T04:29:19.700Z,91.47
2023-02-11T04:29:51.555Z,92.87
2023-02-11T04:30:23.360Z,94.43
2023-02-11T04:30:56.102Z,95.43
2023-02-11T04:31:27.895Z,94.23
2023-02-11T04:31:59.583Z,92.13
2023-02-11T04:32:31.318Z,92.10
2023-02-11T04:33:03.152Z,95.50
2023-02-11T04:33:34.786Z,97.97
2023-02-11T04:34:06.458Z,98.63
2023-02-11T04:34:38.336Z,101.97
2023-02-11T04:35:10.309Z,104.90
2023-02-11T04:35:41.957Z,103.07
2023-02-11T04:36:13.644Z,101.30
2023-02-11T04:36:45.453Z,100.07
2023-02-11T04:37:17.129Z,97.07
2023-02-11T04:37:48.823Z,99.67
2023-02-11T04:38:20.571Z,100.43
2023-02-11T04:38:52.220Z,98.27
2023-02-11T04:39:23.890Z,94.67
2023-02-11T04:39:55.553Z,94.13
2023-02-11T04:40:27.300Z,93.43
2023-02-11T04:41:00.596Z,95.60
2023-02-11T04:41:32.281Z,92.53
2023-02-11T04:42:04.154Z,91.60
2023-02-11T04:42:35.760Z,92.93
2023-02-11T04:43:07.503Z,90.13
2023-02-11T04:43:39.264Z,91.43
2023-02-11T04:44:11.108Z,90.03
2023-02-11T04:44:42.789Z,90.47
2023-02-11T04:45:14.477Z,91.63
2023-02-11T04:45:46.153Z,91.90
2023-02-11T04:46:17.818Z,89.90
2023-02-11T04:46:49.528Z,90.33
2023-02-11T04:47:21.379Z,91.70
2023-02-11T04:47:53.052Z,94.23
2023-02-11T04:48:25.186Z,94.20
2023-02-11T04:48:57.638Z,95.47
2023-02-11T04:49:29.322Z,95.47
2023-02-11T04:50:01.061Z,96.37
2023-02-11T04:50:32.977Z,95.63
2023-02-11T04:51:05.023Z,96.10
2023-02-11T04:51:36.658Z,96.37
2023-02-11T04:52:09.278Z,96.13
2023-02-11T04:52:40.948Z,93.13
2023-02-11T04:53:12.601Z,92.20
2023-02-11T04:53:44.325Z,91.87
2023-02-11T04:54:16.605Z,93.40
2023-02-11T04:54:48.308Z,93.37
2023-02-11T04:55:20.054Z,91.40
2023-02-11T04:55:52.392Z,92.97
2023-02-11T04:56:24.390Z,93.43
2023-02-11T04:56:56.091Z,90.30
2023-02-11T04:57:27.793Z,91.87
2023-02-11T04:57:59.451Z,90.80
2023-02-11T04:58:31.289Z,90.93
2023-02-11T04:59:03.672Z,91.77
2023-02-11T04:59:35.374Z,93.10
2023-02-11T05:00:08.280Z,92.77
2023-02-11T05:00:39.986Z,93.10
2023-02-11T05:01:14.578Z,90.70
2023-02-11T05:01:46.335Z,93.43
2023-02-11T05:02:17.982Z,92.73
2023-02-11T05:02:49.666Z,92.67
2023-02-11T05:03:21.528Z,90.93
2023-02-11T05:03:53.555Z,91.33
2023-02-11T05:04:25.491Z,92.10
2023-02-11T05:04:57.180Z,94.30
2023-02-11T05:05:28.843Z,93.57
2023-02-11T05:06:00.563Z,92.83
2023-02-11T05:06:32.238Z,92.80
2023-02-11T05:07:03.910Z,95.17
2023-02-11T05:07:35.694Z,98.40
2023-02-11T05:08:08.542Z,99.43
2023-02-11T05:08:40.310Z,99.40
2023-02-11T05:09:14.992Z,96.10
2023-02-11T05:09:46.731Z,95.07
2023-02-11T05:10:18.433Z,95.80
2023-02-11T05:10:50.067Z,97.83
2023-02-11T05:11:24.987Z,96.50
2023-02-11T05:11:56.678Z,97.33
2023-02-11T05:12:28.326Z,96.20
2023-02-11T05:13:00.235Z,94.40
2023-02-11T05:13:32.393Z,94.80
2023-02-11T05:14:04.085Z,97.60
2023-02-11T05:14:35.767Z,97.37
2023-02-11T05:15:07.746Z,98.80
2023-02-11T05:15:39.397Z,99.87
2023-02-11T05:16:11.203Z,100.67
2023-02-11T05:16:42.987Z,103.90
2023-02-11T05:17:14.703Z,103.73
2023-02-11T05:17:46.580Z,103.90
2023-02-11T05:18:18.207Z,104.77
2023-02-11T05:18:52.443Z,105.83
2023-02-11T05:19:24.295Z,105.80
2023-02-11T05:19:55.965Z,106.90
2023-02-11T05:20:27.634Z,107.47
2023-02-11T05:20:59.300Z,107.23
2023-02-11T05:21:31.100Z,106.53
2023-02-11T05:22:03.755Z,105.93
2023-02-11T05:22:35.501Z,106.37
2023-02-11T05:23:07.222Z,106.90
2023-02-11T05:23:40.204Z,105.37
2023-02-11T05:24:11.853Z,102.63
2023-02-11T05:24:43.479Z,101.90
2023-02-11T05:25:15.153Z,102.80
2023-02-11T05:25:46.827Z,99.67
2023-02-11T05:26:19.049Z,99.17
2023-02-11T05:26:50.708Z,100.00
2023-02-11T05:27:22.519Z,99.63
2023-02-11T05:27:54.193Z,98.47
2023-02-11T05:28:28.260Z,102.07
2023-02-11T05:29:00.056Z,99.70
2023-02-11T05:29:32.045Z,96.80
2023-02-11T05:30:05.633Z,95.77
2023-02-11T05:30:37.310Z,94.87
2023-02-11T05:31:09.521Z,95.07
2023-02-11T05:31:41.217Z,94.43
2023-02-11T05:32:12.919Z,95.50
2023-02-11T05:32:44.566Z,95.47
2023-02-11T05:33:16.260Z,95.50
2023-02-11T05:33:47.915Z,93.20
2023-02-11T05:34:19.719Z,91.27
2023-02-11T05:34:51.410Z,93.47
2023-02-11T05:35:23.217Z,93.70
2023-02-11T05:36:08.305Z,93.30
2023-02-11T05:36:39.954Z,94.67
2023-02-11T05:37:11.734Z,94.67
2023-02-11T05:37:43.447Z,92.47
2023-02-11T05:38:15.225Z,91.77
2023-02-11T05:38:46.892Z,91.47
2023-02-11T05:39:18.555Z,91.87
2023-02-11T05:39:50.232Z,94.00
2023-02-11T05:40:21.955Z,92.67
2023-02-11T05:40:54.177Z,92.43
2023-02-11T05:41:25.851Z,95.47
2023-02-11T05:41:57.553Z,97.80
2023-02-11T05:42:29.210Z,101.87
2023-02-11T05:43:00.897Z,103.00
2023-02-11T05:43:34.829Z,108.40
2023-02-11T05:44:06.553Z,108.57
2023-02-11T05:44:38.251Z,109.23
2023-02-11T05:45:10.043Z,107.30
2023-02-11T05:45:41.708Z,103.57
2023-02-11T05:46:13.373Z,102.63
2023-02-11T05:46:45.199Z,101.50
2023-02-11T05:47:16.868Z,96.83
2023-02-11T05:47:48.579Z,97.03
2023-02-11T05:48:20.212Z,93.93
2023-02-11T05:48:51.949Z,94.23
2023-02-11T05:49:23.763Z,93.13
2023-02-11T05:49:55.386Z,92.47
2023-02-11T05:50:27.072Z,92.97
2023-02-11T05:50:59.342Z,92.67
2023-02-11T05:51:30.972Z,95.13
2023-02-11T05:52:02.688Z,94.20
2023-02-11T05:52:34.390Z,92.03
2023-02-11T05:53:06.836Z,92.33
2023-02-11T05:53:38.689Z,92.73
2023-02-11T05:54:10.661Z,92.67
2023-02-11T05:54:42.420Z,93.57
2023-02-11T05:55:14.210Z,91.53
2023-02-11T05:55:46.340Z,93.20
2023-02-11T05:56:18.148Z,92.23
2023-02-11T05:56:49.800Z,90.47
2023-02-11T05:57:21.473Z,91.00
2023-02-11T05:57:53.114Z,92.10
2023-02-11T05:58:24.783Z,93.20
2023-02-11T05:58:58.307Z,93.50
2023-02-11T05:59:29.939Z,92.10
2023-02-11T06:00:01.605Z,91.30
2023-02-11T06:00:33.591Z,93.03
2023-02-11T06:01:05.349Z,92.43
2023-02-11T06:01:37.046Z,93.70
2023-02-11T06:02:09.733Z,92.77
2023-02-11T06:02:44.001Z,91.77
2023-02-11T06:03:15.833Z,94.43
2023-02-11T06:03:50.045Z,99.63
2023-02-11T06:04:21.950Z,104.23
2023-02-11T06:04:53.643Z,104.37
2023-02-11T06:05:25.415Z,103.97
2023-02-11T06:05:57.073Z,106.10
2023-02-11T06:06:28.728Z,106.87
2023-02-11T06:07:00.519Z,106.27
2023-02-11T06:07:32.292Z,105.20
2023-02-11T06:08:04.127Z,104.37
2023-02-11T06:08:38.135Z,102.70
2023-02-11T06:09:11.817Z,102.73
2023-02-11T06:09:43.563Z,103.07
2023-02-11T06:10:15.349Z,101.87
2023-02-11T06:10:47.183Z,97.80
2023-02-11T06:11:18.915Z,98.63
2023-02-11T06:11:50.603Z,97.63
2023-02-11T06:12:22.241Z,94.43
2023-02-11T06:12:53.921Z,97.50
2023-02-11T06:13:25.633Z,93.80
2023-02-11T06:13:57.269Z,95.50
2023-02-11T06:14:28.922Z,97.07
2023-02-11T06:15:00.653Z,94.93
2023-02-11T06:15:32.285Z,95.70
2023-02-11T06:16:04.150Z,94.97
2023-02-11T06:16:35.855Z,93.50
2023-02-11T06:17:07.658Z,94.97
2023-02-11T06:17:39.458Z,94.63
2023-02-11T06:18:11.220Z,96.23
2023-02-11T06:18:42.927Z,96.57
2023-02-11T06:19:14.559Z,98.20
2023-02-11T06:19:46.241Z,97.83
2023-02-11T06:20:18.004Z,95.37
2023-02-11T06:20:49.653Z,99.17
2023-02-11T06:21:21.310Z,103.20
2023-02-11T06:21:53.002Z,108.60
2023-02-11T06:22:24.706Z,111.00
2023-02-11T06:22:56.383Z,112.10
2023-02-11T06:23:30.235Z,113.10
2023-02-11T06:24:02.149Z,114.73
2023-02-11T06:24:58.507Z,119.07
2023-02-11T06:25:25.388Z,121.43
2023-02-11T06:26:02.270Z,117.23
2023-02-11T06:26:34.016Z,120.27
2023-02-11T06:27:06.047Z,118.60
2023-02-11T06:27:38.156Z,114.27
2023-02-11T06:28:10.775Z,113.13
2023-02-11T06:28:42.493Z,110.93
2023-02-11T06:29:14.274Z,108.27
2023-02-11T06:29:46.957Z,108.53
2023-02-11T06:30:18.643Z,107.77
2023-02-11T06:30:50.429Z,107.77
2023-02-11T06:31:22.240Z,106.43
2023-02-11T06:31:54.041Z,109.13
2023-02-11T06:32:42.648Z,107.07
2023-02-11T06:33:15.814Z,105.87
2023-02-11T06:33:47.483Z,105.93
2023-02-11T06:34:19.204Z,104.60
2023-02-11T06:34:50.886Z,104.03
2023-02-11T06:35:22.596Z,101.03
2023-02-11T06:35:54.270Z,101.20
2023-02-11T06:36:26.015Z,103.07
2023-02-11T06:36:57.674Z,102.83
2023-02-11T06:37:29.332Z,104.47
2023-02-11T06:38:01.718Z,102.83
2023-02-11T06:38:33.395Z,100.20
2023-02-11T06:39:05.499Z,102.77
2023-02-11T06:39:37.221Z,105.37
2023-02-11T06:40:09.749Z,105.53
2023-02-11T06:40:41.939Z,103.17
2023-02-11T06:41:15.777Z,104.57
2023-02-11T06:41:47.451Z,102.77
2023-02-11T06:42:19.136Z,102.23
2023-02-11T06:42:50.766Z,99.33
2023-02-11T06:43:22.652Z,100.07
2023-02-11T06:43:54.641Z,104.80
2023-02-11T06:44:26.322Z,107.30
2023-02-11T06:44:58.056Z,108.57
2023-02-11T06:45:29.724Z,106.30
2023-02-11T06:46:01.372Z,108.27
2023-02-11T06:46:33.264Z,106.53
2023-02-11T06:47:05.173Z,103.73
2023-02-11T06:47:37.722Z,106.57
2023-02-11T06:48:09.458Z,108.53
2023-02-11T06:48:43.779Z,107.80
2023-02-11T06:49:16.722Z,107.30
2023-02-11T06:49:48.397Z,105.93
2023-02-11T06:50:20.232Z,106.70
2023-02-11T06:50:51.906Z,110.67
2023-02-11T06:51:23.640Z,110.87
2023-02-11T06:51:55.343Z,111.37
2023-02-11T06:52:27.102Z,111.13
2023-02-11T06:53:02.014Z,111.87
2023-02-11T06:53:38.639Z,110.87
2023-02-11T06:54:12.197Z,110.27
2023-02-11T06:54:43.850Z,111.00
2023-02-11T06:55:15.554Z,111.20
2023-02-11T06:55:47.316Z,111.43
2023-02-11T06:56:22.221Z,116.73
2023-02-11T06:56:53.922Z,119.43
2023-02-11T06:57:25.673Z,122.07
2023-02-11T06:57:57.388Z,125.07
2023-02-11T06:58:29.031Z,123.07
2023-02-11T06:59:01.152Z,123.60
2023-02-11T06:59:32.939Z,119.00
2023-02-11T07:00:05.881Z,120.63
2023-02-11T07:00:37.915Z,124.50
2023-02-11T07:01:14.058Z,127.40
2023-02-11T07:01:45.729Z,132.37
2023-02-11T07:02:19.649Z,130.23
2023-02-11T07:02:52.574Z,126.90
2023-02-11T07:03:24.328Z,124.43
2023-02-11T07:03:56.016Z,121.53
2023-02-11T07:04:27.740Z,119.90
2023-02-11T07:04:59.386Z,117.03
2023-02-11T07:05:31.076Z,114.30
2023-02-11T07:06:05.511Z,114.67
2023-02-11T07:06:38.023Z,117.03
2023-02-11T07:07:09.705Z,117.40
2023-02-11T07:07:41.378Z,118.27
2023-02-11T07:08:13.034Z,118.00
2023-02-11T07:08:45.998Z,116.40
2023-02-11T07:09:17.640Z,116.37
2023-02-11T07:09:49.301Z,115.43
2023-02-11T07:10:21.108Z,116.10
2023-02-11T07:10:52.789Z,115.20
2023-02-11T07:11:27.298Z,115.87
2023-02-11T07:11:59.007Z,117.33
2023-02-11T07:12:31.205Z,120.90
2023-02-11T07:13:02.825Z,131.57
2023-02-11T07:13:34.496Z,142.77
2023-02-11T07:14:08.593Z,153.67
2023-02-11T07:14:40.560Z,170.27
2023-02-11T07:15:12.318Z,187.00
2023-02-11T07:15:44.074Z,195.57
2023-02-11T07:16:18.529Z,207.53
2023-02-11T07:16:50.271Z,190.53
2023-02-11T07:17:21.980Z,173.70
2023-02-11T07:17:53.665Z,168.07
2023-02-11T07:18:25.320Z,165.13
2023-02-11T07:18:57.027Z,155.37
2023-02-11T07:19:28.720Z,150.17
2023-02-11T07:20:00.398Z,147.57
2023-02-11T07:20:32.033Z,147.70
2023-02-11T07:21:07.978Z,145.50
2023-02-11T07:21:40.167Z,141.17
2023-02-11T07:22:11.875Z,137.33
2023-02-11T07:22:43.540Z,139.40
2023-02-11T07:23:15.202Z,141.13